Time;durP1;ratioP1;P1;durP2;ratioP2;P2;SDS_P1;SDS_P2;PMS_P1;PMS_P2;Temp;Humidity;BMP_temperature;BMP_pressure;BME280_temperature;BME280_humidity;BME280_pressure;Samples;Min_cycle;Max_cycle;Signal;HPM_P1;HPM_P2
2023/07/03 00:00:12;;;;;;;17.70;7.22;;;16.30;99.90;;;;;;5094560;28;20074;-65
2023/07/03 00:02:38;;;;;;;19.88;7.78;;;16.30;1.00;;;;;;5094899;28;20490;-65
2023/07/03 00:05:08;;;;;;;18.33;7.88;;;16.40;1.00;;;;;;5094800;28;20376;-65
2023/07/03 00:07:33;;;;;;;19.52;7.05;;;16.30;1.00;;;;;;5094592;28;20031;-65
2023/07/03 00:09:59;;;;;;;22.83;7.55;;;16.30;99.90;;;;;;5094675;28;20024;-65
2023/07/03 00:12:24;;;;;;;18.38;7.63;;;16.30;99.90;;;;;;5094729;28;20024;-64
2023/07/03 00:14:50;;;;;;;20.58;7.30;;;16.30;99.90;;;;;;5094339;28;20020;-65
2023/07/03 00:17:16;;;;;;;22.33;7.57;;;16.20;1.00;;;;;;5094335;28;20034;-65
2023/07/03 00:19:42;;;;;;;21.73;7.75;;;16.10;99.90;;;;;;5094526;28;20032;-65
2023/07/03 00:22:07;;;;;;;19.63;7.75;;;16.10;99.90;;;;;;5094272;28;20036;-65
2023/07/03 00:24:33;;;;;;;20.80;7.65;;;16.10;99.90;;;;;;5094019;28;20024;-66
2023/07/03 00:26:59;;;;;;;18.02;7.55;;;16.10;99.90;;;;;;5094142;28;20024;-65
2023/07/03 00:29:28;;;;;;;21.15;7.18;;;16.20;99.90;;;;;;5094213;28;20107;-64
2023/07/03 00:31:54;;;;;;;19.48;7.97;;;16.20;99.90;;;;;;5094337;28;20020;-64
2023/07/03 00:34:19;;;;;;;20.23;6.60;;;16.30;24.70;;;;;;5094011;28;20031;-65
2023/07/03 00:36:46;;;;;;;19.85;7.43;;;16.30;99.90;;;;;;5094068;28;20028;-64
2023/07/03 00:39:11;;;;;;;20.90;7.20;;;16.30;99.90;;;;;;5094168;28;20099;-65
2023/07/03 00:41:37;;;;;;;23.08;7.00;;;16.20;99.90;;;;;;5094102;28;20108;-64
2023/07/03 00:44:02;;;;;;;16.15;6.75;;;16.20;37.00;;;;;;5093950;28;20027;-64
2023/07/03 00:46:28;;;;;;;19.92;6.82;;;16.10;99.90;;;;;;5094220;28;20382;-65
2023/07/03 00:48:54;;;;;;;12.77;5.90;;;16.10;1.00;;;;;;5093676;28;20035;-65
2023/07/03 00:51:19;;;;;;;15.32;5.40;;;16.10;1.00;;;;;;5093940;28;20031;-64
2023/07/03 00:53:45;;;;;;;23.20;6.22;;;16.00;1.00;;;;;;5094002;28;20541;-66
2023/07/03 00:56:12;;;;;;;16.08;5.75;;;16.00;99.90;;;;;;5093342;28;20566;-65
2023/07/03 00:58:38;;;;;;;19.85;5.47;;;16.10;99.90;;;;;;5093702;28;20024;-64
2023/07/03 01:01:43;;;;;;;21.05;5.75;;;16.10;69.80;;;;;;5093644;28;20028;-64
2023/07/03 01:04:15;;;;;;;17.73;5.75;;;16.00;55.30;;;;;;5092889;28;20542;-64
2023/07/03 01:06:46;;;;;;;19.10;5.35;;;15.90;95.90;;;;;;5093474;28;20102;-63
2023/07/03 01:09:15;;;;;;;20.75;4.90;;;15.90;56.80;;;;;;5093645;28;20024;-63
2023/07/03 01:11:42;;;;;;;22.08;6.20;;;15.80;21.00;;;;;;5093561;28;20032;-63
2023/07/03 01:14:10;;;;;;;17.83;6.03;;;15.70;95.20;;;;;;5093355;28;20507;-64
2023/07/03 01:16:37;;;;;;;16.30;5.22;;;15.70;61.00;;;;;;5093494;28;20401;-63
2023/07/03 01:19:07;;;;;;;20.33;5.32;;;15.70;99.90;;;;;;5093436;28;20504;-64
2023/07/03 01:21:46;;;;;;;18.00;5.53;;;15.70;99.90;;;;;;5093401;28;20085;-64
2023/07/03 01:24:15;;;;;;;18.05;5.65;;;15.60;99.90;;;;;;5093238;28;20059;-64
2023/07/03 01:26:44;;;;;;;19.73;5.53;;;15.60;99.90;;;;;;5093078;28;20409;-64
2023/07/03 01:29:11;;;;;;;17.17;5.32;;;15.50;99.90;;;;;;5093474;28;20024;-64
2023/07/03 01:31:38;;;;;;;20.42;5.60;;;15.40;99.90;;;;;;5093214;28;20052;-64
2023/07/03 01:34:06;;;;;;;16.70;5.22;;;15.40;99.90;;;;;;5093295;28;20035;-64
2023/07/03 01:36:33;;;;;;;19.48;5.20;;;15.40;99.90;;;;;;5093449;28;20107;-64
2023/07/03 01:39:02;;;;;;;22.92;5.53;;;15.30;1.00;;;;;;5093199;28;20046;-64
2023/07/03 01:41:29;;;;;;;18.52;5.00;;;15.30;1.00;;;;;;5093124;28;20038;-64
2023/07/03 01:43:55;;;;;;;19.23;5.93;;;15.20;28.40;;;;;;5093258;28;20027;-64
2023/07/03 01:46:20;;;;;;;19.27;5.57;;;15.20;99.90;;;;;;5092988;28;20028;-64
2023/07/03 01:48:46;;;;;;;15.30;4.93;;;15.20;99.90;;;;;;5093057;28;20034;-64
2023/07/03 01:51:20;;;;;;;13.57;5.20;;;15.10;99.90;;;;;;5093072;28;20096;-64
2023/07/03 01:53:55;;;;;;;18.23;5.63;;;15.10;99.90;;;;;;5093011;28;20027;-64
2023/07/03 01:56:25;;;;;;;19.00;5.38;;;15.10;1.00;;;;;;5092738;28;20035;-64
2023/07/03 01:58:56;;;;;;;22.27;6.05;;;15.10;1.00;;;;;;5093165;28;20032;-64
2023/07/03 02:01:42;;;;;;;19.65;4.65;;;15.00;1.00;;;;;;5093090;28;20028;-64
2023/07/03 02:04:16;;;;;;;18.15;5.25;;;15.00;36.80;;;;;;5093061;28;20028;-64
2023/07/03 02:06:44;;;;;;;18.48;5.50;;;15.10;1.00;;;;;;5092846;28;20096;-64
2023/07/03 02:09:11;;;;;;;19.90;5.68;;;15.00;1.00;;;;;;5095989;28;20024;-64
2023/07/03 02:11:36;;;;;;;16.75;5.50;;;15.00;65.00;;;;;;5096968;28;20016;-64
2023/07/03 02:14:03;;;;;;;17.45;5.30;;;15.00;2.40;;;;;;5096989;28;20397;-64
2023/07/03 02:16:29;;;;;;;19.73;5.80;;;15.00;99.90;;;;;;5096717;28;20030;-65
2023/07/03 02:18:55;;;;;;;22.10;5.78;;;15.00;99.90;;;;;;5096590;28;20024;-64
2023/07/03 02:21:21;;;;;;;19.95;6.05;;;14.90;99.90;;;;;;5096752;28;20032;-64
2023/07/03 02:23:47;;;;;;;21.67;6.18;;;14.90;1.00;;;;;;5096689;28;20059;-64
2023/07/03 02:26:14;;;;;;;18.48;5.68;;;14.90;1.00;;;;;;5096263;28;20451;-64
2023/07/03 02:28:40;;;;;;;17.20;4.97;;;14.90;1.00;;;;;;5096452;28;20020;-64
2023/07/03 02:31:05;;;;;;;22.00;6.70;;;14.90;1.00;;;;;;5096590;28;20497;-63
2023/07/03 02:33:31;;;;;;;22.15;5.97;;;14.90;1.00;;;;;;5096448;28;20032;-63
2023/07/03 02:35:56;;;;;;;18.40;5.95;;;14.90;1.00;;;;;;5096134;28;20039;-63
2023/07/03 02:38:22;;;;;;;23.85;6.32;;;14.80;15.30;;;;;;5096461;28;20024;-64
2023/07/03 02:40:47;;;;;;;19.23;5.47;;;14.70;99.90;;;;;;5096175;28;20020;-64
2023/07/03 02:43:14;;;;;;;21.65;5.57;;;14.70;99.90;;;;;;5096205;28;20055;-64
2023/07/03 02:45:41;;;;;;;16.67;5.20;;;14.70;99.90;;;;;;5096078;28;20073;-63
2023/07/03 02:48:08;;;;;;;22.52;5.55;;;14.70;1.00;;;;;;5096363;28;20366;-64
2023/07/03 02:50:34;;;;;;;20.48;5.72;;;14.70;1.00;;;;;;5096275;28;20069;-63
2023/07/03 02:53:00;;;;;;;15.80;4.78;;;14.70;1.00;;;;;;5095829;28;20478;-64
2023/07/03 02:55:26;;;;;;;21.45;6.10;;;14.70;1.00;;;;;;5096081;28;20464;-64
2023/07/03 02:57:51;;;;;;;22.90;5.78;;;14.70;1.00;;;;;;5095903;28;20028;-64
2023/07/03 03:00:17;;;;;;;22.33;5.63;;;14.70;1.00;;;;;;5095598;28;20055;-64
2023/07/03 03:02:44;;;;;;;22.65;5.75;;;14.70;99.90;;;;;;5095864;28;20031;-64
2023/07/03 03:05:10;;;;;;;19.90;5.47;;;14.70;1.00;;;;;;5095902;28;20032;-64
2023/07/03 03:07:36;;;;;;;18.27;5.55;;;14.70;99.90;;;;;;5095975;28;20470;-64
2023/07/03 03:10:02;;;;;;;19.17;5.18;;;14.70;1.00;;;;;;5095933;28;20024;-64
2023/07/03 03:12:27;;;;;;;23.20;6.07;;;14.70;1.00;;;;;;5095966;28;20024;-64
2023/07/03 03:14:53;;;;;;;20.70;5.55;;;14.70;1.00;;;;;;5095850;28;20020;-63
2023/07/03 03:17:18;;;;;;;24.75;5.75;;;14.70;1.00;;;;;;5095749;28;20028;-64
2023/07/03 03:19:44;;;;;;;18.45;5.85;;;14.70;27.10;;;;;;5095177;28;20132;-64
2023/07/03 03:22:10;;;;;;;22.08;6.45;;;14.70;99.90;;;;;;5095487;28;20109;-64
2023/07/03 03:24:35;;;;;;;19.60;5.38;;;14.70;99.90;;;;;;5095368;28;20109;-64
2023/07/03 03:27:06;;;;;;;23.15;5.65;;;14.70;99.90;;;;;;5095353;28;20114;-64
2023/07/03 03:29:33;;;;;;;25.33;6.07;;;14.70;99.90;;;;;;5095390;28;20077;-64
2023/07/03 03:31:59;;;;;;;21.38;5.40;;;14.60;99.90;;;;;;5095350;28;20031;-65
2023/07/03 03:34:25;;;;;;;17.48;5.70;;;14.60;99.90;;;;;;5095297;28;20024;-64
2023/07/03 03:36:50;;;;;;;26.27;6.43;;;14.60;1.00;;;;;;5095125;28;20047;-64
2023/07/03 03:39:16;;;;;;;20.35;6.30;;;14.60;1.00;;;;;;5094990;28;20393;-64
2023/07/03 03:41:41;;;;;;;25.58;5.88;;;14.60;1.00;;;;;;5095051;28;20036;-64
2023/07/03 03:44:07;;;;;;;20.95;5.47;;;14.60;1.00;;;;;;5094948;28;20438;-64
2023/07/03 03:46:34;;;;;;;21.48;6.50;;;14.60;1.00;;;;;;5094899;28;20397;-64
2023/07/03 03:49:00;;;;;;;26.63;6.32;;;14.60;1.00;;;;;;5094991;28;20160;-64
2023/07/03 03:51:25;;;;;;;24.10;6.50;;;14.60;1.00;;;;;;5093769;28;20020;-64
2023/07/03 03:53:51;;;;;;;24.05;5.85;;;14.60;6.40;;;;;;5094820;28;20027;-64
2023/07/03 03:56:17;;;;;;;24.65;5.45;;;14.60;97.00;;;;;;5094955;28;20024;-64
2023/07/03 03:58:42;;;;;;;20.38;5.80;;;14.60;51.50;;;;;;5094697;28;20028;-65
2023/07/03 04:01:08;;;;;;;23.83;6.03;;;14.60;99.90;;;;;;5094698;28;20028;-64
2023/07/03 04:03:33;;;;;;;30.20;6.75;;;14.60;99.90;;;;;;5094706;28;20031;-65
2023/07/03 04:05:59;;;;;;;20.25;5.57;;;14.60;99.90;;;;;;5094689;28;20032;-65
2023/07/03 04:08:25;;;;;;;22.08;5.78;;;14.60;99.90;;;;;;5094822;28;20024;-64
2023/07/03 04:10:50;;;;;;;25.15;5.75;;;14.60;99.90;;;;;;5094650;28;20035;-64
2023/07/03 04:13:16;;;;;;;23.23;6.00;;;14.50;99.90;;;;;;5094633;28;20044;-65
2023/07/03 04:16:02;;;;;;;27.20;5.93;;;14.50;99.90;;;;;;5094621;28;20111;-65
2023/07/03 04:18:28;;;;;;;16.08;5.45;;;14.60;99.90;;;;;;5094295;28;20127;-65
2023/07/03 04:20:54;;;;;;;22.13;5.75;;;14.60;1.00;;;;;;5094274;28;20107;-65
2023/07/03 04:23:20;;;;;;;23.60;5.93;;;14.60;1.00;;;;;;5094109;28;20554;-65
2023/07/03 04:25:46;;;;;;;24.80;6.30;;;14.50;99.90;;;;;;5093811;28;20056;-65
2023/07/03 04:28:12;;;;;;;28.17;7.15;;;14.60;99.90;;;;;;5094187;28;20031;-65
2023/07/03 04:30:38;;;;;;;25.55;6.05;;;14.60;1.00;;;;;;5093453;28;20031;-65
2023/07/03 04:33:04;;;;;;;27.08;6.07;;;14.70;99.90;;;;;;5094126;28;20020;-65
2023/07/03 04:35:29;;;;;;;20.58;6.63;;;14.80;99.90;;;;;;5094300;28;20035;-66
2023/07/03 04:37:55;;;;;;;23.52;6.40;;;14.90;99.90;;;;;;5094102;28;20036;-65
2023/07/03 04:40:20;;;;;;;30.02;6.45;;;15.00;91.20;;;;;;5093949;28;20028;-65
2023/07/03 04:42:46;;;;;;;19.05;5.72;;;15.40;99.90;;;;;;5093900;28;20398;-65
2023/07/03 04:45:13;;;;;;;21.55;5.90;;;15.60;99.90;;;;;;5093825;28;20024;-65
2023/07/03 04:47:39;;;;;;;26.92;6.50;;;15.60;1.00;;;;;;5093871;28;20024;-65
2023/07/03 04:50:08;;;;;;;23.15;6.47;;;15.40;99.90;;;;;;5094018;28;20030;-65
2023/07/03 04:52:36;;;;;;;26.52;6.18;;;15.20;99.90;;;;;;5093788;28;20101;-65
2023/07/03 04:55:02;;;;;;;22.60;5.63;;;15.40;1.00;;;;;;5093887;28;20020;-65
2023/07/03 04:57:28;;;;;;;27.85;7.07;;;15.30;99.90;;;;;;5093500;28;20474;-65
2023/07/03 04:59:55;;;;;;;17.63;5.78;;;15.20;99.90;;;;;;5093762;28;20032;-65
2023/07/03 05:02:21;;;;;;;25.13;5.85;;;15.10;1.00;;;;;;5093615;28;20023;-65
2023/07/03 05:04:47;;;;;;;33.45;6.97;;;15.20;1.00;;;;;;5093743;28;20120;-65
2023/07/03 05:07:13;;;;;;;18.13;6.43;;;15.10;1.00;;;;;;5093357;28;20487;-65
2023/07/03 05:09:38;;;;;;;27.85;6.90;;;15.10;1.00;;;;;;5093496;28;20063;-64
2023/07/03 05:12:04;;;;;;;27.48;7.00;;;15.20;1.00;;;;;;5093652;28;20031;-64
2023/07/03 05:14:30;;;;;;;24.70;6.63;;;15.20;1.00;;;;;;5093329;28;20024;-64
2023/07/03 05:16:55;;;;;;;25.60;6.70;;;15.30;1.00;;;;;;5093161;28;20547;-65
2023/07/03 05:19:21;;;;;;;27.52;6.93;;;15.30;41.10;;;;;;5093532;28;20153;-64
2023/07/03 05:21:47;;;;;;;30.40;6.93;;;15.20;44.30;;;;;;5093321;28;20027;-65
2023/07/03 05:24:13;;;;;;;25.38;6.55;;;15.30;8.60;;;;;;5093422;28;20039;-65
2023/07/03 05:26:39;;;;;;;29.83;7.40;;;15.30;99.90;;;;;;5092933;28;20052;-65
2023/07/03 05:29:05;;;;;;;32.03;6.82;;;15.50;5.20;;;;;;5093342;28;20466;-65
2023/07/03 05:31:31;;;;;;;28.05;7.43;;;15.60;1.00;;;;;;5093287;28;20027;-66
2023/07/03 05:33:56;;;;;;;25.20;7.07;;;15.60;1.00;;;;;;5093342;28;20107;-65
2023/07/03 05:36:22;;;;;;;25.95;7.07;;;15.50;1.00;;;;;;5093185;28;20424;-65
2023/07/03 05:38:48;;;;;;;25.35;7.03;;;15.30;99.90;;;;;;5093147;28;20050;-64
2023/07/03 05:41:14;;;;;;;27.40;6.45;;;15.20;99.90;;;;;;5093306;28;20028;-65
2023/07/03 05:43:40;;;;;;;25.73;6.32;;;15.60;99.90;;;;;;5097193;28;20106;-65
2023/07/03 05:46:06;;;;;;;27.65;7.45;;;15.50;99.90;;;;;;5097380;28;20114;-65
2023/07/03 05:48:31;;;;;;;25.33;6.82;;;15.60;99.90;;;;;;5097096;28;20028;-65
2023/07/03 05:50:57;;;;;;;36.05;6.80;;;15.60;99.90;;;;;;5097077;28;20073;-65
2023/07/03 05:53:23;;;;;;;34.28;8.52;;;15.50;99.90;;;;;;5097116;28;20363;-65
2023/07/03 05:55:56;;;;;;;26.85;6.45;;;15.70;99.90;;;;;;5096835;28;20020;-65
2023/07/03 05:58:22;;;;;;;22.20;7.07;;;15.60;99.90;;;;;;5097234;28;20028;-65
2023/07/03 06:00:49;;;;;;;30.42;7.65;;;15.80;99.90;;;;;;5096960;28;20032;-65
2023/07/03 06:03:15;;;;;;;31.77;6.65;;;16.00;1.00;;;;;;5097435;28;20386;-65
2023/07/03 06:05:41;;;;;;;30.40;7.07;;;16.10;1.00;;;;;;5095589;28;20028;-64
2023/07/03 06:08:07;;;;;;;23.60;6.35;;;16.30;99.90;;;;;;5089047;28;20410;-65
2023/07/03 06:10:32;;;;;;;36.40;7.13;;;16.50;99.90;;;;;;5094109;28;20110;-65
2023/07/03 06:12:58;;;;;;;28.67;6.75;;;16.30;99.90;;;;;;5096185;28;20025;-65
2023/07/03 06:15:23;;;;;;;30.75;6.53;;;17.00;99.90;;;;;;5083658;28;20033;-65
2023/07/03 06:17:49;;;;;;;24.02;6.88;;;17.40;1.00;;;;;;5084023;28;20028;-63
2023/07/03 06:20:14;;;;;;;27.13;6.78;;;17.90;1.00;;;;;;5088711;28;20056;-64
2023/07/03 06:22:41;;;;;;;25.08;6.13;;;17.40;1.00;;;;;;5088878;28;20390;-65
2023/07/03 06:25:07;;;;;;;23.00;5.95;;;17.70;1.00;;;;;;5089890;28;20040;-64
2023/07/03 06:27:33;;;;;;;24.60;6.57;;;17.80;1.00;;;;;;5089261;28;20090;-64
2023/07/03 06:29:59;;;;;;;28.25;6.22;;;17.90;89.30;;;;;;5094933;28;20476;-64
2023/07/03 06:32:24;;;;;;;29.10;6.47;;;18.10;99.90;;;;;;5089776;28;20063;-64
2023/07/03 06:34:50;;;;;;;24.88;6.45;;;19.00;99.90;;;;;;5080452;28;20513;-64
2023/07/03 06:37:15;;;;;;;23.95;6.22;;;19.10;1.00;;;;;;5095220;28;20526;-64
2023/07/03 06:39:41;;;;;;;24.38;6.63;;;18.20;99.90;;;;;;5094123;28;20024;-64
2023/07/03 06:42:07;;;;;;;29.00;6.95;;;17.70;1.00;;;;;;5088670;28;20047;-66
2023/07/03 06:44:32;;;;;;;29.90;6.78;;;17.70;99.90;;;;;;5095705;28;20625;-64
2023/07/03 06:46:58;;;;;;;23.20;5.45;;;17.80;99.90;;;;;;5098133;28;20032;-63
2023/07/03 06:49:24;;;;;;;33.92;6.80;;;17.70;99.90;;;;;;5095630;28;20040;-63
2023/07/03 06:51:51;;;;;;;29.30;7.03;;;17.60;99.90;;;;;;5092716;28;20065;-65
2023/07/03 06:54:17;;;;;;;27.33;6.45;;;17.40;99.90;;;;;;5081172;28;20512;-64
2023/07/03 06:56:42;;;;;;;26.75;6.65;;;17.20;1.00;;;;;;5082668;28;20068;-65
2023/07/03 06:59:08;;;;;;;29.23;6.70;;;17.30;1.00;;;;;;5081010;28;20081;-66
2023/07/03 07:01:34;;;;;;;23.05;6.57;;;17.50;95.10;;;;;;5088459;28;20058;-67
2023/07/03 07:03:59;;;;;;;22.42;5.75;;;18.40;99.90;;;;;;5095624;28;20028;-66
2023/07/03 07:06:28;;;;;;;21.20;6.20;;;18.20;1.00;;;;;;5086474;28;20059;-66
2023/07/03 07:08:54;;;;;;;31.50;7.60;;;17.90;1.00;;;;;;5075203;28;20103;-67
2023/07/03 07:11:22;;;;;;;24.83;6.63;;;17.60;99.90;;;;;;5085084;28;20028;-65
2023/07/03 07:13:50;;;;;;;28.02;6.90;;;17.80;99.90;;;;;;5094480;28;20461;-65
2023/07/03 07:16:18;;;;;;;21.83;7.13;;;17.80;99.90;;;;;;5087815;28;20024;-65
2023/07/03 07:18:47;;;;;;;24.55;6.43;;;18.00;1.00;;;;;;5088433;28;20093;-66
2023/07/03 07:21:12;;;;;;;24.27;5.85;;;18.70;99.90;;;;;;5090528;28;20028;-66
2023/07/03 07:23:38;;;;;;;24.27;6.88;;;19.10;99.90;;;;;;5089397;28;20104;-67
2023/07/03 07:26:04;;;;;;;22.05;7.90;;;18.80;99.90;;;;;;5094364;28;20067;-68
2023/07/03 07:28:30;;;;;;;27.58;7.43;;;18.30;89.70;;;;;;5090720;28;20031;-68
2023/07/03 07:30:55;;;;;;;27.75;6.75;;;18.00;1.00;;;;;;5089363;28;20456;-66
2023/07/03 07:33:22;;;;;;;27.83;7.10;;;17.80;99.90;;;;;;5094486;28;20066;-68
2023/07/03 07:35:49;;;;;;;28.92;8.00;;;17.70;99.90;;;;;;5082882;28;20027;-68
2023/07/03 07:38:14;;;;;;;25.60;7.40;;;17.50;99.90;;;;;;5080443;28;20040;-66
2023/07/03 07:40:40;;;;;;;21.35;7.22;;;17.70;99.90;;;;;;5082836;28;20390;-67
2023/07/03 07:43:06;;;;;;;25.77;6.35;;;17.60;1.00;;;;;;5091808;28;20032;-68
2023/07/03 07:45:32;;;;;;;24.85;7.32;;;17.40;99.90;;;;;;5093789;28;20035;-68
2023/07/03 07:48:01;;;;;;;23.13;7.32;;;17.20;99.90;;;;;;5091415;28;20366;-66
2023/07/03 07:50:27;;;;;;;30.95;8.40;;;17.10;99.90;;;;;;5088768;28;20042;-67
2023/07/03 07:52:53;;;;;;;29.45;7.18;;;17.00;99.90;;;;;;5094234;28;20027;-68
2023/07/03 07:55:19;;;;;;;27.58;7.13;;;16.90;99.90;;;;;;5092164;28;20028;-68
2023/07/03 07:57:45;;;;;;;26.25;7.22;;;16.90;99.90;;;;;;5087908;28;20636;-67
2023/07/03 08:00:11;;;;;;;27.13;7.25;;;17.00;1.00;;;;;;5087708;28;20470;-67
2023/07/03 08:02:36;;;;;;;30.60;7.75;;;16.80;99.90;;;;;;5087858;28;20031;-67
2023/07/03 08:05:02;;;;;;;29.02;7.15;;;16.80;99.90;;;;;;5091981;28;20028;-66
2023/07/03 08:07:28;;;;;;;26.17;8.27;;;16.90;1.00;;;;;;5091655;28;20032;-66
2023/07/03 08:09:54;;;;;;;26.02;7.75;;;17.30;99.90;;;;;;5092053;28;20039;-66
2023/07/03 08:12:19;;;;;;;37.50;7.95;;;17.50;1.00;;;;;;5088181;28;20418;-65
2023/07/03 08:14:45;;;;;;;29.67;6.68;;;17.20;99.90;;;;;;5093670;28;20040;-66
2023/07/03 08:17:10;;;;;;;30.05;6.75;;;17.10;99.90;;;;;;5093255;28;20108;-68
2023/07/03 08:19:36;;;;;;;24.80;6.95;;;17.00;34.00;;;;;;5087137;28;20094;-67
2023/07/03 08:22:01;;;;;;;22.17;7.53;;;16.90;65.70;;;;;;5091173;28;20032;-66
2023/07/03 08:24:27;;;;;;;26.63;7.03;;;16.80;1.00;;;;;;5093781;28;20031;-66
2023/07/03 08:26:54;;;;;;;22.67;6.82;;;16.80;99.90;;;;;;5090346;28;20035;-69
2023/07/03 08:29:20;;;;;;;28.98;6.70;;;16.90;99.90;;;;;;5077131;28;20027;-67
2023/07/03 08:31:45;;;;;;;22.50;8.40;;;16.90;96.00;;;;;;5088042;28;20119;-66
2023/07/03 08:34:11;;;;;;;25.65;8.63;;;17.00;1.00;;;;;;5091502;28;20023;-66
2023/07/03 08:36:37;;;;;;;29.48;7.82;;;17.10;99.90;;;;;;5088674;28;20074;-66
2023/07/03 08:39:04;;;;;;;28.30;7.70;;;18.00;1.00;;;;;;5087359;28;20028;-66
2023/07/03 08:41:34;;;;;;;24.27;7.43;;;18.70;1.00;;;;;;5087622;28;20032;-66
2023/07/03 08:44:01;;;;;;;18.60;6.82;;;18.90;1.00;;;;;;5083023;28;20055;-64
2023/07/03 08:46:30;;;;;;;30.42;7.45;;;19.70;34.90;;;;;;5083790;28;20442;-66
2023/07/03 08:49:01;;;;;;;21.20;6.72;;;19.60;99.90;;;;;;5089664;28;20557;-64
2023/07/03 08:51:29;;;;;;;34.60;7.30;;;19.10;1.00;;;;;;5077154;28;20024;-63
2023/07/03 08:54:03;;;;;;;27.20;7.85;;;18.50;1.00;;;;;;5086300;28;20025;-64
2023/07/03 08:56:33;;;;;;;26.45;7.63;;;18.10;99.90;;;;;;5091244;28;20484;-64
2023/07/03 08:58:58;;;;;;;24.27;7.70;;;17.70;32.40;;;;;;5090507;28;20110;-65
2023/07/03 09:01:55;;;;;;;24.40;7.63;;;17.60;99.90;;;;;;5091271;28;20047;-63
2023/07/03 09:04:58;;;;;;;21.52;7.65;;;17.50;88.70;;;;;;5075084;28;20539;-66
2023/07/03 09:07:33;;;;;;;24.40;7.80;;;17.50;99.90;;;;;;5079807;28;20032;-64
2023/07/03 09:10:15;;;;;;;24.45;7.22;;;17.70;99.90;;;;;;5077489;28;20404;-64
2023/07/03 09:12:50;;;;;;;25.20;7.22;;;17.80;1.00;;;;;;5088652;28;20043;-63
2023/07/03 09:15:28;;;;;;;19.45;6.60;;;17.90;99.90;;;;;;5087688;28;20430;-63
2023/07/03 09:17:56;;;;;;;24.60;6.38;;;18.30;9.30;;;;;;5087674;28;20089;-65
2023/07/03 09:20:24;;;;;;;18.90;6.25;;;18.30;99.90;;;;;;5090204;28;20028;-64
2023/07/03 09:22:57;;;;;;;15.50;6.32;;;18.30;1.00;;;;;;5079179;28;20035;-64
2023/07/03 09:25:36;;;;;;;18.87;5.57;;;18.10;1.00;;;;;;5069993;28;20566;-65
2023/07/03 09:28:04;;;;;;;15.43;5.97;;;18.10;1.00;;;;;;5071218;28;20291;-64
2023/07/03 09:30:29;;;;;;;19.50;6.35;;;18.00;99.90;;;;;;5081696;28;20409;-67
2023/07/03 09:32:55;;;;;;;20.77;6.68;;;17.60;99.90;;;;;;5078632;28;20031;-64
2023/07/03 09:35:22;;;;;;;24.33;7.13;;;17.40;1.00;;;;;;5085086;28;20381;-64
2023/07/03 09:37:50;;;;;;;19.55;6.60;;;17.20;99.90;;;;;;5080936;28;20774;-63
2023/07/03 09:40:37;;;;;;;19.27;6.07;;;17.10;99.90;;;;;;5076630;28;20131;-64
2023/07/03 09:43:10;;;;;;;19.23;6.88;;;17.10;99.90;;;;;;5075289;28;20436;-64
2023/07/03 09:45:36;;;;;;;;;;;17.10;1.00;;;;;;5075445;28;20482;-64
2023/07/03 09:48:09;;;;;;;22.90;7.88;;;17.00;99.90;;;;;;5077015;28;20001;-66
2023/07/03 09:50:38;;;;;;;23.63;7.80;;;16.80;99.90;;;;;;5073949;28;20103;-65
2023/07/03 09:53:04;;;;;;;23.15;7.35;;;16.70;99.90;;;;;;5076716;28;20036;-65
2023/07/03 09:55:30;;;;;;;29.15;7.60;;;16.50;99.90;;;;;;5082585;28;20049;-64
2023/07/03 09:57:57;;;;;;;23.38;7.35;;;16.40;99.90;;;;;;5086072;28;20130;-64
2023/07/03 10:00:25;;;;;;;26.17;7.93;;;16.40;99.90;;;;;;5075459;28;20570;-66
2023/07/03 10:02:57;;;;;;;24.08;7.70;;;16.30;99.90;;;;;;5085768;28;20032;-64
2023/07/03 10:05:32;;;;;;;18.08;6.53;;;16.40;99.90;;;;;;5076085;28;20073;-65
2023/07/03 10:08:02;;;;;;;21.02;7.25;;;16.40;1.00;;;;;;5075267;28;20040;-67
2023/07/03 10:10:30;;;;;;;23.27;7.03;;;16.60;99.90;;;;;;5078406;28;20637;-64
2023/07/03 10:13:21;;;;;;;24.48;7.00;;;16.90;1.00;;;;;;5075184;28;20392;-64
2023/07/03 10:15:47;;;;;;;22.27;6.68;;;17.10;99.90;;;;;;5076374;28;20070;-63
2023/07/03 10:18:32;;;;;;;19.77;6.57;;;17.60;99.90;;;;;;5077046;28;20032;-63
2023/07/03 10:21:01;;;;;;;20.15;6.50;;;18.10;1.00;;;;;;5070183;28;20059;-63
2023/07/03 10:23:30;;;;;;;20.88;6.45;;;18.60;1.00;;;;;;5080451;28;20056;-65
2023/07/03 10:26:04;;;;;;;24.67;5.50;;;19.90;1.00;;;;;;5079976;28;20052;-65
2023/07/03 10:28:36;;;;;;;19.17;6.15;;;20.90;99.90;;;;;;5079855;28;20473;-63
2023/07/03 10:31:08;;;;;;;16.75;5.80;;;22.30;99.90;;;;;;5091472;28;20036;-62
2023/07/03 10:33:43;;;;;;;21.73;5.60;;;21.60;34.10;;;;;;5089269;28;20115;-63
2023/07/03 10:36:13;;;;;;;20.92;5.50;;;20.60;1.00;;;;;;5078834;28;20049;-63
2023/07/03 10:39:03;;;;;;;19.30;5.97;;;20.10;99.90;;;;;;5080267;28;20090;-64
2023/07/03 10:41:35;;;;;;;18.88;5.90;;;19.40;99.90;;;;;;5081229;28;20027;-63
2023/07/03 10:44:07;;;;;;;21.25;6.28;;;18.90;99.90;;;;;;5090057;28;20024;-62
2023/07/03 10:47:12;;;;;;;17.80;5.68;;;19.00;99.90;;;;;;5086327;28;20073;-62
2023/07/03 10:49:39;;;;;;;14.45;5.72;;;19.20;99.90;;;;;;5086889;28;20456;-62
2023/07/03 10:52:31;;;;;;;21.10;5.88;;;20.10;97.00;;;;;;5091253;28;20032;-63
2023/07/03 10:55:13;;;;;;;15.57;5.20;;;20.50;1.00;;;;;;5088333;28;20478;-62
2023/07/03 11:00:34;;;;;;;15.85;5.63;;;19.70;99.90;;;;;;5085332;27;20409;-63
2023/07/03 11:03:20;;;;;;;18.52;5.72;;;19.10;99.90;;;;;;5070192;28;20107;-62
2023/07/03 11:05:57;;;;;;;19.95;5.50;;;18.70;99.90;;;;;;5065980;28;20066;-63
2023/07/03 11:08:44;;;;;;;17.27;5.25;;;18.50;99.90;;;;;;5068146;28;20536;-63
2023/07/03 11:11:29;;;;;;;13.73;5.50;;;18.50;99.90;;;;;;5067767;28;20031;-63
2023/07/03 11:14:34;;;;;;;17.33;5.35;;;18.90;99.90;;;;;;5067738;28;20576;-63
2023/07/03 11:17:29;;;;;;;15.27;5.20;;;19.40;99.90;;;;;;5067055;28;20020;-64
2023/07/03 11:20:21;;;;;;;14.60;4.97;;;19.90;99.90;;;;;;5065681;28;20033;-64
2023/07/03 11:23:12;;;;;;;13.32;4.63;;;20.70;99.90;;;;;;5065037;28;20475;-65
2023/07/03 11:25:46;;;;;;;19.05;5.00;;;20.60;41.40;;;;;;5060681;28;20107;-64
2023/07/03 11:28:26;;;;;;;12.57;4.63;;;20.60;1.00;;;;;;5069850;28;20540;-64
2023/07/03 11:30:53;;;;;;;13.63;4.50;;;21.00;1.00;;;;;;5069020;28;20060;-65
2023/07/03 11:33:21;;;;;;;16.60;4.80;;;21.60;1.00;;;;;;5083756;28;20470;-65
2023/07/03 11:35:51;;;;;;;17.42;4.93;;;21.30;1.00;;;;;;5081254;28;20068;-66
2023/07/03 11:38:19;;;;;;;16.05;4.70;;;20.90;1.00;;;;;;5068357;28;20115;-65
2023/07/03 11:41:02;;;;;;;18.75;4.88;;;20.60;1.00;;;;;;5067159;28;20108;-65
2023/07/03 11:43:34;;;;;;;15.65;4.63;;;20.40;1.00;;;;;;5087874;28;20111;-64
2023/07/03 11:48:41;;;;;;;16.25;4.20;;;20.00;1.00;;;;;;5090109;27;20344;-64
2023/07/03 11:51:11;;;;;;;18.20;4.78;;;20.60;1.00;;;;;;5054708;28;20509;-66
2023/07/03 11:53:43;;;;;;;14.48;4.47;;;20.90;1.00;;;;;;5066214;28;20037;-65
2023/07/03 11:56:27;;;;;;;13.30;5.53;;;20.60;1.00;;;;;;5067171;28;20036;-64
2023/07/03 11:59:00;;;;;;;;;;;20.70;1.00;;;;;;5070114;28;20279;-64
2023/07/03 12:01:30;;;;;;;11.20;4.57;;;20.80;1.00;;;;;;5069266;28;20781;-65
2023/07/03 12:03:59;;;;;;;15.93;4.30;;;21.10;1.00;;;;;;5071087;28;20036;-64
2023/07/03 12:06:44;;;;;;;13.40;4.03;;;21.10;22.40;;;;;;5067265;28;20033;-64
2023/07/03 12:09:30;;;;;;;13.25;4.57;;;21.50;1.00;;;;;;5069793;28;20052;-65
2023/07/03 12:12:06;;;;;;;13.32;3.92;;;21.50;1.00;;;;;;5084026;28;20029;-65
2023/07/03 12:14:56;;;;;;;16.55;4.18;;;21.30;1.00;;;;;;5059587;28;20029;-65
2023/07/03 12:17:28;;;;;;;17.20;4.00;;;20.50;1.00;;;;;;5056194;28;20461;-65
2023/07/03 12:20:08;;;;;;;13.13;3.83;;;20.70;1.00;;;;;;5057207;28;20450;-65
2023/07/03 12:22:39;;;;;;;11.77;4.03;;;21.50;1.00;;;;;;5068972;28;20532;-64
2023/07/03 12:25:09;;;;;;;17.25;4.15;;;21.20;1.00;;;;;;5064866;28;20025;-65
2023/07/03 12:27:36;;;;;;;10.00;4.03;;;;;;;;;;5069105;28;20039;-64
2023/07/03 12:30:03;;;;;;;13.63;4.05;;;;;;;;;;5064453;28;20029;-64
2023/07/03 12:32:31;;;;;;;10.95;3.92;;;;;;;;;;5067902;28;20025;-64
2023/07/03 12:37:52;;;;;;;14.65;4.82;;;;;;;;;;5139170;27;20472;-65
2023/07/03 12:40:19;;;;;;;16.63;3.88;;;;;;;;;;5128079;27;20051;-67
2023/07/03 12:42:46;;;;;;;10.07;3.78;;;;;;;;;;5132124;27;20116;-65
2023/07/03 12:45:14;;;;;;;8.52;3.67;;;;;;;;;;5132089;27;20023;-66
2023/07/03 12:47:40;;;;;;;10.32;3.90;;;;;;;;;;5119238;27;20034;-65
2023/07/03 12:50:07;;;;;;;19.83;5.10;;;;;;;;;;5128316;28;20024;-64
2023/07/03 12:52:35;;;;;;;17.20;4.43;;;;;;;;;;5123496;27;20092;-66
2023/07/03 12:55:02;;;;;;;13.32;4.32;;;;;;;;;;5114022;27;20032;-64
2023/07/03 12:57:30;;;;;;;14.27;4.25;;;;;;;;;;5103424;28;20536;-64
2023/07/03 12:59:57;;;;;;;17.05;5.28;;;;;;;;;;5119531;27;20419;-64
2023/07/03 13:02:25;;;;;;;13.20;4.72;;;;;;;;;;5127634;28;20115;-64